createdAt,value
2022-07-29T00:00:45.992Z,53.16
2022-07-29T00:03:14.785Z,53.37
2022-07-29T00:05:43.455Z,53.11
2022-07-29T00:08:12.746Z,53.71
2022-07-29T00:10:40.673Z,53.76
2022-07-29T00:13:08.817Z,54.03
2022-07-29T00:15:36.667Z,53.77
2022-07-29T00:18:05.175Z,53.92
2022-07-29T00:20:33.173Z,53.92
2022-07-29T00:23:01.049Z,54.34
2022-07-29T00:25:28.825Z,54.34
2022-07-29T00:27:56.650Z,54.19
2022-07-29T00:30:24.528Z,54.22
2022-07-29T00:32:52.296Z,54.47
2022-07-29T00:35:38.647Z,54.55
2022-07-29T00:38:06.467Z,54.76
2022-07-29T00:40:34.345Z,54.81
2022-07-29T00:43:02.981Z,54.66
2022-07-29T00:45:31.161Z,54.58
2022-07-29T00:47:58.988Z,54.87
2022-07-29T00:50:27.574Z,55.03
2022-07-29T00:52:55.463Z,54.73
2022-07-29T00:55:23.593Z,54.97
2022-07-29T00:57:52.647Z,55.13
2022-07-29T01:00:26.425Z,55.23
2022-07-29T01:02:54.350Z,54.78
2022-07-29T01:05:25.640Z,54.97
2022-07-29T01:08:16.522Z,55.33
2022-07-29T01:10:46.830Z,55.08
2022-07-29T01:13:15.819Z,55.39
2022-07-29T01:15:50.676Z,55.57
2022-07-29T01:18:32.798Z,55.16
2022-07-29T01:21:22.289Z,55.04
2022-07-29T01:24:27.191Z,54.83
2022-07-29T01:27:32.735Z,54.82
2022-07-29T01:30:05.198Z,55.20
2022-07-29T01:32:39.123Z,55.08
2022-07-29T01:35:22.072Z,55.19
2022-07-29T01:38:21.387Z,54.73
2022-07-29T01:41:06.147Z,54.97
2022-07-29T01:44:02.418Z,55.33
2022-07-29T01:46:38.139Z,55.34
2022-07-29T01:49:17.727Z,55.54
2022-07-29T01:52:08.682Z,55.17
2022-07-29T01:54:46.984Z,55.60
2022-07-29T01:57:21.313Z,55.80
2022-07-29T01:59:51.536Z,56.11
2022-07-29T02:02:20.874Z,56.00
2022-07-29T02:04:50.883Z,56.66
2022-07-29T02:07:22.901Z,56.59
2022-07-29T02:09:53.279Z,56.39
2022-07-29T02:12:23.047Z,56.26
2022-07-29T02:14:55.235Z,56.48
2022-07-29T02:17:30.270Z,56.41
2022-07-29T02:20:01.519Z,56.05
2022-07-29T02:22:34.603Z,56.14
2022-07-29T02:25:03.713Z,55.95
2022-07-29T02:27:34.520Z,56.15
2022-07-29T02:30:04.878Z,56.18
2022-07-29T02:32:36.490Z,56.54
2022-07-29T02:35:05.530Z,56.45
2022-07-29T02:37:34.609Z,56.49
2022-07-29T02:40:03.199Z,56.28
2022-07-29T02:42:34.838Z,56.25
2022-07-29T02:45:02.678Z,56.76
2022-07-29T02:47:46.099Z,56.06
2022-07-29T02:50:42.362Z,56.20
2022-07-29T02:53:38.279Z,56.23
2022-07-29T02:56:12.088Z,56.54
2022-07-29T02:58:46.117Z,56.77
2022-07-29T03:01:21.869Z,56.66
2022-07-29T03:03:54.025Z,56.61
2022-07-29T03:06:37.806Z,56.98
2022-07-29T03:09:12.961Z,57.00
2022-07-29T03:11:50.465Z,56.99
2022-07-29T03:14:21.032Z,56.74
2022-07-29T03:16:51.109Z,57.33
2022-07-29T03:19:21.237Z,57.22
2022-07-29T03:21:49.496Z,56.81
2022-07-29T03:24:36.464Z,56.78
2022-07-29T03:27:06.468Z,57.16
2022-07-29T03:29:34.797Z,56.86
2022-07-29T03:32:07.245Z,57.44
2022-07-29T03:34:37.857Z,57.11
2022-07-29T03:37:07.693Z,57.41
2022-07-29T03:39:42.425Z,57.18
2022-07-29T03:42:15.011Z,57.62
2022-07-29T03:44:46.632Z,57.21
2022-07-29T03:47:18.543Z,57.42
2022-07-29T03:49:52.874Z,57.57
2022-07-29T03:52:22.117Z,57.01
2022-07-29T03:54:50.261Z,57.33
2022-07-29T03:57:23.417Z,57.57
2022-07-29T03:59:53.258Z,57.73
2022-07-29T04:02:24.474Z,57.68
2022-07-29T04:04:55.179Z,57.71
2022-07-29T04:07:23.067Z,57.68
2022-07-29T04:09:50.816Z,57.77
2022-07-29T04:12:18.632Z,57.57
2022-07-29T04:14:46.800Z,57.65
2022-07-29T04:17:14.624Z,58.18
2022-07-29T04:19:42.366Z,57.84
2022-07-29T04:22:10.175Z,57.85
2022-07-29T04:24:37.988Z,58.04
2022-07-29T08:39:19.530Z,60.09
2022-07-29T08:41:57.428Z,58.91
2022-07-29T08:44:30.968Z,58.00
2022-07-29T08:46:59.164Z,56.73
2022-07-29T08:49:27.031Z,57.07
2022-07-29T08:51:57.090Z,54.90
2022-07-29T08:54:25.865Z,54.00
2022-07-29T08:56:54.906Z,53.56
2022-07-29T08:59:26.182Z,52.81
2022-07-29T09:01:55.637Z,51.92
2022-07-29T09:04:28.353Z,52.28
2022-07-29T09:06:59.470Z,50.94
2022-07-29T09:09:27.965Z,51.00
2022-07-29T09:11:56.534Z,50.30
2022-07-29T09:14:24.569Z,48.91
2022-07-29T09:16:57.452Z,49.45
2022-07-29T09:19:32.793Z,49.37
2022-07-29T09:22:04.220Z,49.01
2022-07-29T09:24:47.773Z,48.54
2022-07-29T09:27:18.546Z,47.80
2022-07-29T09:29:46.352Z,48.27
2022-07-29T09:32:14.284Z,47.75
2022-07-29T09:34:42.092Z,47.24
2022-07-29T09:37:09.963Z,46.02
2022-07-29T09:39:46.718Z,44.53
2022-07-29T09:42:28.157Z,44.63
2022-07-29T09:44:56.026Z,44.90
2022-07-29T09:47:40.964Z,45.37
2022-07-29T09:50:09.279Z,43.59
2022-07-29T09:52:49.510Z,44.74
2022-07-29T09:55:19.957Z,44.81
2022-07-29T09:57:48.252Z,45.63
2022-07-29T10:00:22.789Z,45.83
2022-07-29T10:02:51.979Z,45.22
2022-07-29T10:05:25.370Z,44.87
2022-07-29T10:07:58.618Z,44.62
2022-07-29T10:10:37.753Z,44.18
2022-07-29T10:13:16.088Z,44.48
2022-07-29T10:15:46.924Z,42.93
2022-07-29T10:18:18.315Z,41.95
2022-07-29T10:20:46.643Z,41.56
2022-07-29T10:23:15.014Z,41.17
2022-07-29T10:25:46.227Z,41.82
2022-07-29T10:28:16.731Z,40.78
2022-07-29T10:30:46.675Z,40.10
2022-07-29T10:33:39.926Z,40.25
2022-07-29T10:36:43.296Z,40.29
2022-07-29T10:39:55.198Z,40.05
2022-07-29T10:42:33.304Z,38.63
2022-07-29T10:45:04.875Z,38.50
2022-07-29T10:47:35.243Z,38.31
2022-07-29T10:50:06.226Z,37.97
2022-07-29T10:52:54.628Z,37.83
2022-07-29T10:55:39.412Z,37.66
2022-07-29T10:58:24.520Z,37.42
2022-07-29T11:00:55.001Z,38.08
2022-07-29T11:03:49.300Z,38.23
2022-07-29T11:06:26.193Z,37.27
2022-07-29T11:09:34.827Z,36.54
2022-07-29T11:12:03.704Z,37.15
2022-07-29T11:15:02.675Z,36.79
2022-07-29T11:17:46.931Z,36.53
2022-07-29T11:20:49.891Z,36.47
2022-07-29T11:23:33.951Z,36.22
2022-07-29T11:26:14.800Z,36.18
2022-07-29T11:28:55.632Z,36.33
2022-07-29T11:31:45.039Z,35.91
2022-07-29T11:34:33.331Z,35.25
2022-07-29T11:37:12.483Z,35.33
2022-07-29T11:39:53.773Z,35.40
2022-07-29T11:42:30.455Z,34.94
2022-07-29T11:45:41.158Z,34.96
2022-07-29T11:48:05.271Z,35.22
2022-07-29T11:50:48.354Z,35.96
2022-07-29T11:53:17.246Z,36.00
2022-07-29T11:55:51.527Z,35.81
2022-07-29T11:58:24.975Z,36.13
2022-07-29T12:00:55.654Z,36.20
2022-07-29T12:03:33.613Z,36.39
2022-07-29T12:06:24.405Z,36.24
2022-07-29T12:08:52.313Z,36.74
2022-07-29T12:11:23.380Z,36.92
2022-07-29T12:13:52.783Z,37.51
2022-07-29T12:16:26.005Z,37.53
2022-07-29T12:19:03.779Z,38.00
2022-07-29T12:21:56.912Z,37.60
2022-07-29T12:24:27.617Z,38.18
2022-07-29T12:27:00.105Z,37.68
2022-07-29T12:29:34.929Z,38.09
2022-07-29T12:32:14.737Z,38.24
2022-07-29T12:34:47.799Z,38.88
2022-07-29T12:37:15.895Z,38.78
2022-07-29T12:39:43.880Z,38.59
2022-07-29T12:42:18.535Z,37.87
2022-07-29T12:44:51.645Z,37.84
2022-07-29T12:47:21.610Z,37.24
2022-07-29T12:49:51.199Z,37.53
2022-07-29T12:52:33.459Z,37.72
2022-07-29T12:55:02.193Z,36.89
2022-07-29T12:57:30.272Z,36.59
2022-07-29T13:00:06.472Z,36.92
2022-07-29T13:02:35.419Z,37.43
2022-07-29T13:05:07.586Z,37.19
2022-07-29T13:07:55.511Z,38.26
2022-07-29T13:10:26.195Z,39.49
2022-07-29T13:13:13.208Z,39.49
2022-07-29T13:15:44.349Z,39.09
2022-07-29T13:18:37.283Z,39.19
2022-07-29T13:21:14.886Z,38.62
2022-07-29T13:23:43.609Z,37.55
2022-07-29T13:26:12.962Z,37.99
2022-07-29T13:28:41.024Z,37.12
2022-07-29T13:31:12.507Z,36.58
2022-07-29T13:33:40.421Z,35.87
2022-07-29T13:36:09.165Z,35.91
2022-07-29T13:38:36.936Z,36.27
2022-07-29T13:41:05.134Z,36.58
2022-07-29T13:43:33.577Z,35.84
2022-07-29T13:46:01.473Z,36.65
2022-07-29T13:48:29.379Z,36.80
2022-07-29T13:50:58.053Z,37.38
2022-07-29T13:53:26.855Z,37.35
2022-07-29T13:55:56.161Z,37.84
2022-07-29T13:58:24.010Z,38.25
2022-07-29T14:00:51.971Z,38.44
2022-07-29T14:03:20.106Z,38.63
2022-07-29T14:05:48.170Z,38.21
2022-07-29T14:08:16.220Z,38.06
2022-07-29T14:10:44.181Z,37.36
2022-07-29T14:13:21.830Z,37.68
2022-07-29T14:15:53.958Z,37.94
2022-07-29T14:18:21.740Z,38.31
2022-07-29T14:20:49.734Z,38.11
2022-07-29T14:23:18.176Z,36.85
2022-07-29T14:25:49.387Z,35.31
2022-07-29T14:28:17.835Z,34.93
2022-07-29T14:30:45.704Z,34.48
2022-07-29T14:33:17.897Z,32.73
2022-07-29T14:35:47.457Z,32.78
2022-07-29T14:38:16.506Z,31.78
2022-07-29T14:40:44.642Z,31.42
2022-07-29T14:43:13.155Z,30.90
2022-07-29T14:45:42.011Z,30.98
2022-07-29T14:48:09.971Z,30.65
2022-07-29T14:50:37.935Z,29.93
2022-07-29T14:53:06.158Z,30.87
2022-07-29T14:55:34.003Z,29.84
2022-07-29T14:58:09.679Z,29.48
2022-07-29T15:00:38.913Z,29.29
2022-07-29T15:03:06.870Z,29.59
2022-07-29T15:05:39.912Z,29.53
2022-07-29T15:08:09.158Z,29.46
2022-07-29T15:10:37.416Z,29.60
2022-07-29T15:13:05.285Z,29.56
2022-07-29T15:15:33.123Z,29.19
2022-07-29T15:18:00.927Z,29.69
2022-07-29T15:20:28.728Z,29.78
2022-07-29T15:22:57.220Z,29.09
2022-07-29T15:25:28.227Z,29.26
2022-07-29T15:28:01.110Z,29.66
2022-07-29T15:30:33.650Z,29.42
2022-07-29T15:33:04.765Z,29.82
2022-07-29T15:35:33.245Z,29.44
2022-07-29T15:38:08.200Z,29.80
2022-07-29T15:40:38.179Z,30.03
2022-07-29T15:43:06.859Z,30.12
2022-07-29T15:45:42.673Z,29.94
2022-07-29T15:48:13.215Z,30.16
2022-07-29T15:50:42.903Z,30.36
2022-07-29T15:53:15.380Z,30.28
2022-07-29T15:55:43.127Z,30.65
2022-07-29T15:58:12.403Z,30.54
2022-07-29T16:00:40.147Z,30.44
2022-07-29T16:03:08.480Z,30.09
2022-07-29T16:05:36.266Z,30.33
2022-07-29T16:08:05.718Z,29.92
2022-07-29T16:10:33.677Z,29.88
2022-07-29T16:13:01.836Z,29.94
2022-07-29T16:15:29.598Z,29.98
2022-07-29T16:17:57.487Z,29.73
2022-07-29T16:20:25.509Z,29.72
2022-07-29T16:22:54.321Z,29.68
2022-07-29T16:25:29.588Z,29.71
2022-07-29T16:28:06.763Z,30.19
2022-07-29T16:30:35.810Z,29.84
2022-07-29T16:33:08.201Z,29.87
2022-07-29T16:35:40.146Z,29.63
2022-07-29T16:38:08.132Z,29.44
2022-07-29T16:40:35.943Z,29.57
2022-07-29T16:43:03.709Z,29.41
2022-07-29T16:45:32.635Z,29.61
2022-07-29T16:48:15.116Z,29.69
2022-07-29T16:50:46.283Z,29.59
2022-07-29T16:53:14.084Z,29.54
2022-07-29T16:55:42.072Z,29.90
2022-07-29T16:58:11.211Z,29.20
2022-07-29T17:00:39.704Z,29.02
2022-07-29T17:03:07.579Z,29.39
2022-07-29T17:05:52.701Z,29.48
2022-07-29T17:08:22.888Z,29.21
2022-07-29T17:10:50.874Z,29.21
2022-07-29T17:13:18.707Z,29.03
2022-07-29T17:15:46.547Z,29.44
2022-07-29T17:18:14.324Z,29.21
2022-07-29T17:20:42.729Z,29.07
2022-07-29T17:23:12.396Z,29.04
2022-07-29T17:25:40.716Z,28.42
2022-07-29T17:28:08.506Z,28.59
2022-07-29T17:30:36.284Z,28.69
2022-07-29T17:33:04.148Z,28.91
2022-07-29T17:35:50.502Z,28.76
2022-07-29T17:38:18.322Z,29.10
2022-07-29T17:40:46.092Z,28.61
2022-07-29T17:43:13.955Z,28.11
